createdAt,value
2019-02-22T00:00:42.142Z,24.60
2019-02-22T00:05:43.589Z,24.60
2019-02-22T00:10:44.944Z,24.50
2019-02-22T00:15:46.287Z,24.50
2019-02-22T00:20:48.712Z,24.50
2019-02-22T00:25:50.138Z,24.50
2019-02-22T00:30:51.525Z,24.40
2019-02-22T00:35:52.896Z,24.40
2019-02-22T00:40:54.258Z,24.40
2019-02-22T00:45:56.675Z,24.40
2019-02-22T00:50:58.087Z,24.30
2019-02-22T00:55:59.523Z,24.30
2019-02-22T01:01:00.910Z,24.30
2019-02-22T01:06:02.304Z,24.30
2019-02-22T01:11:03.935Z,24.30
2019-02-22T01:16:05.338Z,24.20
2019-02-22T01:21:08.836Z,24.20
2019-02-22T01:26:10.187Z,24.20
2019-02-22T01:31:11.594Z,24.20
2019-02-22T01:36:13.020Z,24.20
2019-02-22T01:41:14.422Z,24.20
2019-02-22T01:46:15.754Z,24.20
2019-02-22T01:51:17.142Z,24.10
2019-02-22T01:56:18.471Z,24.10
2019-02-22T02:01:19.896Z,24.10
2019-02-22T02:06:21.313Z,24.10
2019-02-22T02:11:22.700Z,24.10
2019-02-22T02:16:24.047Z,24.10
2019-02-22T02:21:25.539Z,24.00
2019-02-22T02:26:27.919Z,24.10
2019-02-22T02:31:29.250Z,24.00
2019-02-22T02:36:30.661Z,24.10
2019-02-22T02:41:31.983Z,24.00
2019-02-22T02:46:33.408Z,24.00
2019-02-22T02:51:34.913Z,24.00
2019-02-22T02:56:36.306Z,24.00
2019-02-22T03:01:37.646Z,24.00
2019-02-22T03:06:43.568Z,24.00
2019-02-22T03:11:44.978Z,24.00
2019-02-22T03:16:46.451Z,24.00
2019-02-22T03:21:47.813Z,24.00
2019-02-22T03:26:49.200Z,24.00
2019-02-22T03:31:50.548Z,24.00
2019-02-22T03:36:51.984Z,24.00
2019-02-22T03:41:53.386Z,24.00
2019-02-22T03:46:54.735Z,24.00
2019-02-22T03:51:56.354Z,24.00
2019-02-22T03:56:57.771Z,24.00
2019-02-22T04:01:59.264Z,24.00
2019-02-22T04:07:00.614Z,24.00
2019-02-22T04:12:02.056Z,24.00
2019-02-22T04:17:03.454Z,23.90
2019-02-22T04:22:04.788Z,23.90
2019-02-22T04:27:06.184Z,23.90
2019-02-22T04:32:07.532Z,23.90
2019-02-22T04:37:08.911Z,23.90
2019-02-22T04:42:11.393Z,23.90
2019-02-22T04:47:12.728Z,23.90
2019-02-22T04:52:14.126Z,23.90
2019-02-22T04:57:15.493Z,23.90
2019-02-22T05:02:16.959Z,23.90
2019-02-22T05:07:18.289Z,23.90
2019-02-22T05:12:19.671Z,23.90
2019-02-22T05:17:21.053Z,23.90
2019-02-22T05:22:22.390Z,23.90
2019-02-22T05:27:23.779Z,23.90
2019-02-22T05:32:25.110Z,23.90
2019-02-22T05:37:26.500Z,23.90
2019-02-22T05:42:28.699Z,23.80
2019-02-22T05:47:30.265Z,23.90
2019-02-22T05:52:31.719Z,23.80
2019-02-22T05:57:33.093Z,23.80
2019-02-22T06:02:34.418Z,23.80
2019-02-22T06:07:35.830Z,23.80
2019-02-22T06:12:37.252Z,23.80
2019-02-22T06:17:38.641Z,23.80
2019-02-22T06:22:40.308Z,23.80
2019-02-22T06:27:41.662Z,23.80
2019-02-22T06:32:43.258Z,23.80
2019-02-22T06:37:44.688Z,23.80
2019-02-22T06:42:46.372Z,23.80
2019-02-22T06:47:48.079Z,23.80
2019-02-22T06:52:49.493Z,23.80
2019-02-22T06:57:51.028Z,23.80
2019-02-22T07:02:52.527Z,23.80
2019-02-22T07:07:56.732Z,23.80
2019-02-22T07:12:59.239Z,23.80
2019-02-22T07:18:00.653Z,23.80
2019-02-22T07:23:02.114Z,23.80
2019-02-22T07:28:03.446Z,23.80
2019-02-22T07:33:04.862Z,23.80
2019-02-22T07:38:06.375Z,23.70
2019-02-22T07:43:08.450Z,23.70
2019-02-22T07:48:09.954Z,23.70
2019-02-22T07:53:11.287Z,23.70
2019-02-22T07:58:29.689Z,23.60
2019-02-22T08:03:31.095Z,23.60
2019-02-22T08:08:38.177Z,23.60
2019-02-22T08:13:40.533Z,23.60
2019-02-22T08:18:41.890Z,23.60
2019-02-22T08:23:43.243Z,23.60
2019-02-22T08:28:44.614Z,23.50
2019-02-22T08:33:45.945Z,23.50
2019-02-22T08:38:49.961Z,23.50
2019-02-22T08:43:51.360Z,23.50
2019-02-22T08:48:52.739Z,23.50
2019-02-22T08:53:54.059Z,23.50
2019-02-22T08:58:55.453Z,23.50
2019-02-22T09:03:56.822Z,23.50
2019-02-22T09:08:58.267Z,23.50
2019-02-22T09:13:59.627Z,23.50
2019-02-22T09:19:01.031Z,23.50
2019-02-22T09:24:02.344Z,23.50
2019-02-22T09:29:03.741Z,23.50
2019-02-22T09:34:05.087Z,23.50
2019-02-22T09:39:06.852Z,23.50
2019-02-22T09:44:08.254Z,23.50
2019-02-22T09:49:10.595Z,23.50
2019-02-22T09:54:12.015Z,23.50
2019-02-22T09:59:13.328Z,23.50
2019-02-22T10:04:14.722Z,23.50
2019-02-22T10:09:16.060Z,23.50
2019-02-22T10:14:17.464Z,23.60
2019-02-22T10:19:18.810Z,23.60
2019-02-22T10:24:20.148Z,23.60
2019-02-22T10:29:21.539Z,23.60
2019-02-22T10:34:22.905Z,23.50
2019-02-22T10:39:24.264Z,23.60
2019-02-22T10:44:26.548Z,23.50
2019-02-22T10:49:27.913Z,23.60
2019-02-22T10:54:29.262Z,23.60
2019-02-22T10:59:30.650Z,23.60
2019-02-22T11:04:33.035Z,23.60
2019-02-22T11:09:34.425Z,23.60
2019-02-22T11:14:35.815Z,23.60
2019-02-22T11:19:38.863Z,23.60
2019-02-22T11:24:40.239Z,23.70
2019-02-22T11:29:41.630Z,23.60
2019-02-22T11:34:42.968Z,23.60
2019-02-22T11:39:44.343Z,23.60
2019-02-22T11:44:45.724Z,23.60
2019-02-22T11:49:47.058Z,23.60
2019-02-22T11:54:48.446Z,23.70
2019-02-22T11:59:49.984Z,23.60
2019-02-22T12:04:51.388Z,23.60
2019-02-22T12:09:52.783Z,23.70
2019-02-22T12:14:54.226Z,23.70
2019-02-22T12:19:55.650Z,23.80
2019-02-22T12:24:57.044Z,23.70
2019-02-22T12:29:58.375Z,23.70
2019-02-22T12:34:59.768Z,23.70
2019-02-22T12:40:01.548Z,23.80
2019-02-22T12:45:06.912Z,23.80
2019-02-22T12:50:12.383Z,23.70
2019-02-22T12:55:13.993Z,23.80
2019-02-22T13:00:17.681Z,23.80
2019-02-22T13:05:29.151Z,23.80
2019-02-22T13:10:31.611Z,23.80
2019-02-22T13:15:33.030Z,23.80
2019-02-22T13:20:34.438Z,23.80
2019-02-22T13:25:35.840Z,23.80
2019-02-22T13:30:37.179Z,23.80
2019-02-22T13:35:38.590Z,23.80
2019-02-22T13:40:39.999Z,23.80
2019-02-22T13:45:41.394Z,23.80
2019-02-22T13:50:42.829Z,23.90
2019-02-22T13:55:44.230Z,23.80
2019-02-22T14:00:45.685Z,23.80
2019-02-22T14:05:47.095Z,23.90
2019-02-22T14:10:48.542Z,23.80
2019-02-22T14:15:51.406Z,23.80
2019-02-22T14:20:52.791Z,23.90
2019-02-22T14:25:54.184Z,23.90
2019-02-22T14:30:55.519Z,23.90
2019-02-22T14:35:56.911Z,23.90
2019-02-22T14:40:58.270Z,23.90
2019-02-22T14:45:59.651Z,23.90
2019-02-22T14:51:01.701Z,23.90
2019-02-22T14:56:03.179Z,23.90
2019-02-22T15:01:05.041Z,23.90
2019-02-22T15:06:06.436Z,23.80
2019-02-22T15:11:08.064Z,23.80
2019-02-22T15:16:14.166Z,23.80
2019-02-22T15:21:16.237Z,23.90
2019-02-22T15:26:17.661Z,23.80
2019-02-22T15:31:19.105Z,23.90
2019-02-22T15:36:24.453Z,23.90
2019-02-22T15:41:26.253Z,23.80
2019-02-22T15:46:27.654Z,23.90
2019-02-22T15:51:29.051Z,23.90
2019-02-22T15:56:30.381Z,23.90
2019-02-22T16:01:31.791Z,23.90
2019-02-22T16:06:33.229Z,23.90
2019-02-22T16:11:34.950Z,23.90
2019-02-22T16:16:42.798Z,23.80
2019-02-22T16:21:44.168Z,23.80
2019-02-22T16:26:45.969Z,23.80
2019-02-22T16:31:47.307Z,23.80
2019-02-22T16:36:48.709Z,23.80
2019-02-22T16:41:50.145Z,23.80
2019-02-22T16:46:51.522Z,23.80
2019-02-22T16:51:52.906Z,23.90
2019-02-22T16:56:54.313Z,23.90
2019-02-22T17:01:55.721Z,24.00
2019-02-22T17:06:57.155Z,24.00
2019-02-22T17:12:06.051Z,24.10
2019-02-22T17:17:01.948Z,24.20
2019-02-22T17:22:03.306Z,24.20
2019-02-22T17:27:04.724Z,24.20
2019-02-22T17:32:06.131Z,24.20
2019-02-22T17:37:08.577Z,24.20
2019-02-22T17:42:11.280Z,24.20
2019-02-22T17:47:12.621Z,24.20
2019-02-22T17:52:13.995Z,24.20
2019-02-22T18:07:48.886Z,24.30
2019-02-22T18:12:50.261Z,24.30
2019-02-22T18:17:51.669Z,24.30
2019-02-22T18:22:53.005Z,24.30
2019-02-22T18:27:54.409Z,24.30
2019-02-22T18:32:55.920Z,24.30
2019-02-22T18:37:57.295Z,24.40
2019-02-22T18:42:58.801Z,24.40
2019-02-22T18:48:00.132Z,24.30
2019-02-22T18:53:01.519Z,24.30
2019-02-22T18:58:02.864Z,24.30
2019-02-22T19:03:04.346Z,24.30
2019-02-22T19:08:05.688Z,24.20
2019-02-22T19:13:07.186Z,24.20
2019-02-22T19:18:08.547Z,24.20
2019-02-22T19:23:09.941Z,24.20
2019-02-22T19:28:11.269Z,24.20
2019-02-22T19:33:12.696Z,24.20
2019-02-22T19:38:14.110Z,24.20
2019-02-22T19:43:15.494Z,24.20
2019-02-22T19:48:16.907Z,24.20
2019-02-22T19:53:18.305Z,24.20
2019-02-22T19:58:19.698Z,24.10
2019-02-22T20:03:21.150Z,24.10
2019-02-22T20:08:22.599Z,24.10
2019-02-22T20:13:23.922Z,24.20
2019-02-22T20:18:25.335Z,24.10
2019-02-22T20:23:26.786Z,24.10
2019-02-22T20:28:28.146Z,24.10
2019-02-22T20:33:30.674Z,24.10
2019-02-22T20:38:32.221Z,24.10
2019-02-22T20:43:33.606Z,24.20
2019-02-22T20:48:35.044Z,24.20
2019-02-22T20:53:36.432Z,24.20
2019-02-22T20:58:37.769Z,24.20
2019-02-22T21:03:39.172Z,24.20
2019-02-22T21:08:40.593Z,24.20
2019-02-22T21:13:42.011Z,24.20
2019-02-22T21:18:46.121Z,24.10
2019-02-22T21:23:46.777Z,24.10
2019-02-22T21:28:48.235Z,24.20
2019-02-22T21:33:49.591Z,24.10
2019-02-22T21:38:50.927Z,24.10
2019-02-22T21:43:52.352Z,24.10
2019-02-22T21:48:53.754Z,24.10
2019-02-22T21:53:55.138Z,24.10
2019-02-22T21:58:56.510Z,24.00
2019-02-22T22:03:57.858Z,24.10
2019-02-22T22:08:59.244Z,24.00
2019-02-22T22:14:00.675Z,24.00
2019-02-22T22:19:02.083Z,24.00
2019-02-22T22:24:03.499Z,24.00
2019-02-22T22:29:04.988Z,24.00
2019-02-22T22:34:06.338Z,24.10
2019-02-22T22:39:07.882Z,24.10
2019-02-22T22:44:09.291Z,24.10
2019-02-22T22:49:10.637Z,24.00
2019-02-22T22:54:12.119Z,23.90
2019-02-22T22:59:13.455Z,23.90
2019-02-22T23:04:14.854Z,23.90
2019-02-22T23:09:17.909Z,23.80
2019-02-22T23:14:19.426Z,23.90
2019-02-22T23:19:20.755Z,23.80
2019-02-22T23:24:22.155Z,23.80
2019-02-22T23:29:23.484Z,23.80
2019-02-22T23:34:24.902Z,23.80
2019-02-22T23:39:26.416Z,23.80
2019-02-22T23:44:27.809Z,23.80
2019-02-22T23:49:29.150Z,23.80
2019-02-22T23:54:30.619Z,23.70
2019-02-22T23:59:32.002Z,23.70
